Koei Maru — JD3326 — position and weather

sailwx.info

Track history (hours):
 
Tides and Currents Weather Stations Pressure Air Temp Water Temp Dewpoint Dewpoint Depression Visibility Wind Speed Wind Dir Waves Ship Positions

Koei Maru

Last reported at 2018-Feb-24 16:26 UTC. Time now 2018-Feb-24 19:46 UTC.
Position N 34°42' E 134°37'.

Length 74 m.

Type: Cargo ship. MMSI: 431003269.

Date/timePositionNaut miles runAvg speedWind from/ knotsBaromVisibWave heightAir tempDewpointWater temp
2018-Feb-24 16:26N 34°42' E 134°37'913.3
2018-Feb-24 15:46N 34°41' E 134°48'3 0.2
2018-Feb-23 21:25N 34°43' E 134°50'4 8.8
2018-Feb-23 21:00N 34°41' E 134°47'911.1
2018-Feb-23 20:12N 34°42' E 134°36'311.1
2018-Feb-23 19:55N 34°42' E 134°32'6 0.1
2018-Feb-22 05:09N 34°42' E 134°39'213.0
2018-Feb-22 04:59N 34°42' E 134°42'612.8
2018-Feb-22 04:30N 34°41' E 134°49'2 0.3
2018-Feb-21 19:01N 34°43' E 134°51'0 2.7
2018-Feb-21 18:58N 34°43' E 134°51'4 7.9
2018-Feb-21 18:30N 34°41' E 134°47'10 0.3
2018-Feb-20 10:33N 34°42' E 134°34'112.8
2018-Feb-20 10:30N 34°42' E 134°35'612.4
2018-Feb-20 10:00N 34°42' E 134°43'611.5
2018-Feb-20 09:30N 34°41' E 134°50'2 1.1
2018-Feb-20 07:50N 34°43' E 134°51'1 0.3
2018-Feb-20 02:41N 34°42' E 134°50'210.9
2018-Feb-20 02:30N 34°41' E 134°48'  
Track history (hours):
 
Tides and Currents Weather Stations Pressure Air Temp Water Temp Dewpoint Dewpoint Depression Visibility Wind Speed Wind Dir Waves Ship Positions

Koei Maru

Last reported at 2018-Feb-24 16:26 UTC. Time now 2018-Feb-24 19:46 UTC.
Position N 34°42' E 134°37'.

Length 74 m.

Type: Cargo ship. MMSI: 431003269.

Date/timePositionNaut miles runAvg speedWind from/ knotsBaromVisibWave heightAir tempDewpointWater temp
2018-Feb-24 16:26N 34°42' E 134°37'913.3
2018-Feb-24 15:46N 34°41' E 134°48'3 0.2
2018-Feb-23 21:25N 34°43' E 134°50'4 8.8
2018-Feb-23 21:00N 34°41' E 134°47'911.1
2018-Feb-23 20:12N 34°42' E 134°36'311.1
2018-Feb-23 19:55N 34°42' E 134°32'6 0.1
2018-Feb-22 05:09N 34°42' E 134°39'213.0
2018-Feb-22 04:59N 34°42' E 134°42'612.8
2018-Feb-22 04:30N 34°41' E 134°49'2 0.3
2018-Feb-21 19:01N 34°43' E 134°51'0 2.7
2018-Feb-21 18:58N 34°43' E 134°51'4 7.9
2018-Feb-21 18:30N 34°41' E 134°47'10 0.3
2018-Feb-20 10:33N 34°42' E 134°34'112.8
2018-Feb-20 10:30N 34°42' E 134°35'612.4
2018-Feb-20 10:00N 34°42' E 134°43'611.5
2018-Feb-20 09:30N 34°41' E 134°50'2 1.1
2018-Feb-20 07:50N 34°43' E 134°51'1 0.3
2018-Feb-20 02:41N 34°42' E 134°50'210.9
2018-Feb-20 02:30N 34°41' E 134°48'  

Dump ship's entire track history